Time;durP1;ratioP1;P1;durP2;ratioP2;P2;SDS_P1;SDS_P2;PMS_P1;PMS_P2;Temp;Humidity;BMP_temperature;BMP_pressure;BME280_temperature;BME280_humidity;BME280_pressure;Samples;Min_cycle;Max_cycle;Signal;HPM_P1;HPM_P2
2022/07/26 00:01:51;;;;;;;0.22;0.10;;;23.80;59.50;;;;;;4939492;28;20122;-22
2022/07/26 00:04:16;;;;;;;0.10;0.10;;;23.70;59.60;;;;;;4939923;28;20410;-17
2022/07/26 00:06:42;;;;;;;0.35;0.10;;;23.70;59.60;;;;;;4943822;28;20126;-17
2022/07/26 00:09:07;;;;;;;0.40;0.20;;;23.70;59.80;;;;;;4940837;28;20047;-17
2022/07/26 00:11:33;;;;;;;0.38;0.35;;;23.70;59.80;;;;;;4940257;28;20051;-17
2022/07/26 00:14:00;;;;;;;0.30;0.10;;;23.70;59.60;;;;;;4938468;28;20505;-17
2022/07/26 00:16:27;;;;;;;0.30;0.20;;;23.70;59.80;;;;;;5032289;28;20103;-16
2022/07/26 00:18:52;;;;;;;0.15;0.10;;;23.70;59.60;;;;;;5037235;28;20135;-17
2022/07/26 00:21:18;;;;;;;0.47;0.30;;;23.80;59.70;;;;;;4956664;28;20110;-17
2022/07/26 00:23:43;;;;;;;0.43;0.20;;;23.70;60.00;;;;;;5040823;28;20470;-17
2022/07/26 00:26:09;;;;;;;0.30;0.17;;;23.80;59.70;;;;;;5038897;28;20037;-17
2022/07/26 00:28:35;;;;;;;0.10;0.10;;;23.70;59.60;;;;;;5037021;28;20492;-17
2022/07/26 00:31:00;;;;;;;0.40;0.20;;;23.70;59.70;;;;;;4995535;28;20048;-17
2022/07/26 00:33:26;;;;;;;0.20;0.20;;;23.70;59.90;;;;;;4955130;28;20048;-16
2022/07/26 00:35:51;;;;;;;0.52;0.17;;;23.70;60.00;;;;;;5037980;28;20033;-16
2022/07/26 00:38:17;;;;;;;0.30;0.30;;;23.80;59.70;;;;;;4996827;28;20049;-17
2022/07/26 00:40:43;;;;;;;0.40;0.30;;;23.80;59.80;;;;;;5039852;28;20060;-17
2022/07/26 00:43:08;;;;;;;0.40;0.17;;;23.70;60.00;;;;;;5038086;28;20117;-17
2022/07/26 00:45:34;;;;;;;0.57;0.10;;;23.80;59.90;;;;;;5025850;28;20050;-17
2022/07/26 00:47:59;;;;;;;0.65;0.30;;;23.70;59.70;;;;;;4975401;28;20051;-17
2022/07/26 00:50:25;;;;;;;0.40;0.20;;;23.70;59.70;;;;;;4957044;28;20027;-17
2022/07/26 00:52:50;;;;;;;0.30;0.20;;;23.70;59.80;;;;;;4999265;28;20052;-17
2022/07/26 00:55:16;;;;;;;0.43;0.25;;;23.70;59.80;;;;;;5036635;28;20049;-23
2022/07/26 00:57:42;;;;;;;0.20;0.17;;;23.70;59.80;;;;;;5003803;28;20041;-17
2022/07/26 01:00:13;;;;;;;0.30;0.20;;;23.70;60.00;;;;;;5001337;28;20045;-16
2022/07/26 01:02:39;;;;;;;0.28;0.20;;;23.70;60.00;;;;;;4994977;28;20467;-17
2022/07/26 01:05:05;;;;;;;0.95;0.17;;;23.70;60.50;;;;;;5000784;28;20569;-17
2022/07/26 01:07:31;;;;;;;0.22;0.20;;;23.70;59.90;;;;;;5035113;28;20045;-16
2022/07/26 01:09:57;;;;;;;0.30;0.20;;;23.70;60.10;;;;;;5035265;28;20029;-17
2022/07/26 01:12:22;;;;;;;0.20;0.20;;;23.70;59.70;;;;;;4999434;28;20515;-19
2022/07/26 01:14:48;;;;;;;0.35;0.10;;;23.60;59.90;;;;;;4994753;28;20102;-17
2022/07/26 01:17:14;;;;;;;0.13;0.13;;;23.60;59.90;;;;;;4978941;28;20112;-17
2022/07/26 01:19:40;;;;;;;0.30;0.20;;;23.70;60.00;;;;;;5026883;28;20629;-16
2022/07/26 01:22:05;;;;;;;0.52;0.10;;;23.70;60.00;;;;;;4980249;28;20039;-16
2022/07/26 01:24:31;;;;;;;0.45;0.10;;;23.70;60.10;;;;;;5034634;28;20040;-17
2022/07/26 01:26:56;;;;;;;0.47;0.20;;;23.70;60.60;;;;;;5036026;28;20030;-16
2022/07/26 01:29:22;;;;;;;0.30;0.30;;;23.70;60.60;;;;;;5039379;28;20499;-17
2022/07/26 01:31:48;;;;;;;1.45;0.30;;;23.70;59.80;;;;;;5037417;28;20068;-17
2022/07/26 01:34:14;;;;;;;0.10;0.10;;;23.70;59.90;;;;;;5039529;28;20040;-22
2022/07/26 01:36:39;;;;;;;0.28;0.20;;;23.70;60.00;;;;;;4989492;28;20038;-27
2022/07/26 01:39:05;;;;;;;1.95;0.20;;;23.60;60.00;;;;;;5038329;28;20033;-17
2022/07/26 01:41:31;;;;;;;0.30;0.20;;;23.60;60.00;;;;;;4996179;28;20036;-17
2022/07/26 01:43:56;;;;;;;0.45;0.20;;;23.70;60.20;;;;;;5037142;28;20065;-17
2022/07/26 01:46:22;;;;;;;0.50;0.15;;;23.70;59.90;;;;;;4998699;28;20050;-17
2022/07/26 01:48:47;;;;;;;0.20;0.10;;;23.60;60.00;;;;;;4997947;28;20036;-17
2022/07/26 01:51:13;;;;;;;0.10;0.10;;;23.60;60.10;;;;;;5041234;28;20041;-17
2022/07/26 01:53:38;;;;;;;0.85;0.30;;;23.60;60.10;;;;;;4997882;28;20041;-17
2022/07/26 01:56:04;;;;;;;0.50;0.22;;;23.60;60.30;;;;;;5003552;28;20059;-17
2022/07/26 01:58:30;;;;;;;0.57;0.45;;;23.60;60.20;;;;;;4991946;28;20046;-17
2022/07/26 02:00:56;;;;;;;0.25;0.20;;;23.60;60.20;;;;;;5039126;28;20094;-17
2022/07/26 02:03:21;;;;;;;0.22;0.20;;;23.60;60.10;;;;;;4978892;28;20037;-20
2022/07/26 02:05:47;;;;;;;0.30;0.20;;;23.60;60.10;;;;;;4961656;28;20056;-19
2022/07/26 02:08:12;;;;;;;0.28;0.20;;;23.60;60.20;;;;;;4995837;28;20454;-17
2022/07/26 02:13:22;;;;;;;;;;;23.60;60.10;;;;;;5037913;28;20129;-17
2022/07/26 02:15:48;;;;;;;0.15;0.15;;;23.60;60.00;;;;;;5040533;28;19999;-17
2022/07/26 02:18:13;;;;;;;2.88;0.22;;;23.70;60.20;;;;;;4999816;28;20033;-16
2022/07/26 02:20:54;;;;;;;0.20;0.20;;;23.70;60.30;;;;;;5009977;28;20049;-17
2022/07/26 02:23:20;;;;;;;0.52;0.22;;;23.70;60.30;;;;;;5035227;28;20045;-20
2022/07/26 02:25:46;;;;;;;0.50;0.30;;;23.60;60.20;;;;;;4974658;28;20051;-16
2022/07/26 02:28:12;;;;;;;0.20;0.20;;;23.60;60.40;;;;;;4982648;28;20051;-17
2022/07/26 02:30:38;;;;;;;1.23;0.28;;;23.60;60.50;;;;;;5023134;28;20133;-21
2022/07/26 02:33:04;;;;;;;0.43;0.22;;;23.60;60.50;;;;;;5015187;28;20454;-17
2022/07/26 02:35:30;;;;;;;0.20;0.20;;;23.60;60.50;;;;;;4953934;28;20769;-17
2022/07/26 02:38:03;;;;;;;0.30;0.20;;;23.60;60.40;;;;;;4999214;28;20499;-16
2022/07/26 02:40:29;;;;;;;0.10;0.10;;;23.60;60.30;;;;;;4990017;28;20051;-16
2022/07/26 02:42:55;;;;;;;0.20;0.10;;;23.60;60.40;;;;;;4982542;28;20093;-16
2022/07/26 02:45:20;;;;;;;0.40;0.30;;;23.60;60.30;;;;;;5018324;28;20056;-26
2022/07/26 02:47:50;;;;;;;0.40;0.25;;;23.60;60.50;;;;;;4961551;28;20049;-17
2022/07/26 02:50:19;;;;;;;0.40;0.30;;;23.60;60.50;;;;;;4997089;28;20602;-17
2022/07/26 02:52:47;;;;;;;0.60;0.30;;;23.50;60.30;;;;;;4935138;28;20544;-20
2022/07/26 02:55:17;;;;;;;0.20;0.10;;;23.60;60.50;;;;;;4941095;28;20043;-16
2022/07/26 02:57:42;;;;;;;0.70;0.20;;;23.60;60.40;;;;;;4936735;28;20047;-17
2022/07/26 03:00:09;;;;;;;0.20;0.13;;;23.60;60.40;;;;;;4936383;28;20126;-17
2022/07/26 03:02:34;;;;;;;0.40;0.20;;;23.60;60.40;;;;;;4938242;28;20097;-16
2022/07/26 03:05:01;;;;;;;0.35;0.20;;;23.60;60.10;;;;;;4939706;28;20059;-17
2022/07/26 03:07:27;;;;;;;0.30;0.10;;;23.60;60.20;;;;;;4937569;28;20050;-16
2022/07/26 03:09:52;;;;;;;0.10;0.08;;;23.60;60.40;;;;;;4936439;28;20036;-15
2022/07/26 03:12:18;;;;;;;0.30;0.10;;;23.60;60.50;;;;;;4943472;28;20413;-17
2022/07/26 03:14:44;;;;;;;1.15;0.45;;;23.60;60.60;;;;;;4941260;28;20052;-16
2022/07/26 03:17:09;;;;;;;0.35;0.30;;;23.50;60.50;;;;;;4939541;28;20051;-17
2022/07/26 03:19:35;;;;;;;0.43;0.28;;;23.50;60.50;;;;;;4939970;28;20528;-17
2022/07/26 03:22:00;;;;;;;0.30;0.20;;;23.50;60.50;;;;;;4937352;28;20102;-17
2022/07/26 03:24:26;;;;;;;0.30;0.22;;;23.60;60.40;;;;;;4936929;28;20461;-16
2022/07/26 03:26:51;;;;;;;0.15;0.15;;;23.50;60.40;;;;;;4938747;28;20040;-17
2022/07/26 03:29:17;;;;;;;0.35;0.20;;;23.60;60.50;;;;;;4941536;28;20138;-17
2022/07/26 03:31:43;;;;;;;0.40;0.10;;;23.60;60.50;;;;;;4937176;28;20055;-17
2022/07/26 03:34:08;;;;;;;0.57;0.20;;;23.60;60.50;;;;;;4940266;28;20083;-17
2022/07/26 03:36:34;;;;;;;0.20;0.20;;;23.60;60.40;;;;;;4940797;28;20082;-16
2022/07/26 03:38:59;;;;;;;0.40;0.30;;;23.60;60.50;;;;;;4939609;28;20071;-17
2022/07/26 03:41:25;;;;;;;0.25;0.20;;;23.60;60.50;;;;;;4938346;28;20048;-17
2022/07/26 03:43:50;;;;;;;1.70;0.20;;;23.60;60.60;;;;;;4940567;29;20142;-20
2022/07/26 03:46:16;;;;;;;0.40;0.30;;;23.50;60.60;;;;;;4942507;28;20046;-16
2022/07/26 03:48:42;;;;;;;0.20;0.10;;;23.50;60.60;;;;;;4940075;28;20059;-17
2022/07/26 03:51:07;;;;;;;0.40;0.20;;;23.50;60.60;;;;;;4944119;28;20047;-17
2022/07/26 03:53:33;;;;;;;0.43;0.22;;;23.50;60.50;;;;;;4931500;28;20047;-22
2022/07/26 03:58:43;;;;;;;;;;;23.50;60.60;;;;;;4932700;28;20067;-17
2022/07/26 04:01:08;;;;;;;0.40;0.28;;;23.50;60.70;;;;;;4943722;28;19918;-17
2022/07/26 04:03:34;;;;;;;0.57;0.20;;;23.50;60.80;;;;;;4938634;28;20044;-16
2022/07/26 04:05:59;;;;;;;0.40;0.20;;;23.50;60.70;;;;;;4939400;28;20057;-26
2022/07/26 04:08:25;;;;;;;0.40;0.30;;;23.50;60.60;;;;;;4940940;28;20071;-16
2022/07/26 04:10:51;;;;;;;0.25;0.17;;;23.50;60.50;;;;;;4938337;28;20078;-17
2022/07/26 04:13:17;;;;;;;0.28;0.20;;;23.50;60.70;;;;;;4941984;28;20038;-16
2022/07/26 04:15:43;;;;;;;0.35;0.20;;;23.50;60.60;;;;;;4941769;28;20075;-16
2022/07/26 04:18:09;;;;;;;0.43;0.20;;;23.50;60.80;;;;;;4940818;28;20081;-17
2022/07/26 04:20:34;;;;;;;0.20;0.20;;;23.50;60.80;;;;;;4938866;28;20604;-17
2022/07/26 04:23:00;;;;;;;0.20;0.10;;;23.50;60.70;;;;;;4937638;28;20042;-17
2022/07/26 04:25:25;;;;;;;0.40;0.38;;;23.50;61.60;;;;;;4936624;28;20417;-17
2022/07/26 04:27:51;;;;;;;0.22;0.13;;;23.50;60.60;;;;;;4939744;28;20054;-18
2022/07/26 04:30:16;;;;;;;0.60;0.20;;;23.50;60.90;;;;;;4939655;28;20058;-17
2022/07/26 04:32:45;;;;;;;0.30;0.20;;;23.50;60.90;;;;;;4936813;28;20490;-17
2022/07/26 04:35:11;;;;;;;1.23;0.30;;;23.50;60.90;;;;;;4938034;28;20054;-17
2022/07/26 04:37:40;;;;;;;0.57;0.25;;;23.50;60.90;;;;;;4942429;28;20051;-16
2022/07/26 04:40:06;;;;;;;0.40;0.22;;;23.50;60.90;;;;;;4942701;28;20032;-17
2022/07/26 04:42:32;;;;;;;0.80;0.30;;;23.50;61.00;;;;;;4938757;28;20100;-17
2022/07/26 04:44:57;;;;;;;0.40;0.20;;;23.50;61.20;;;;;;4955482;28;20519;-16
2022/07/26 04:47:23;;;;;;;3.13;0.30;;;23.50;61.90;;;;;;4943630;28;20036;-18
2022/07/26 04:49:48;;;;;;;1.27;0.55;;;23.40;62.30;;;;;;4933181;28;20105;-19
2022/07/26 04:52:14;;;;;;;0.50;0.38;;;23.00;60.80;;;;;;4595291;28;9999973;-19
2022/07/26 04:54:40;;;;;;;0.80;0.40;;;22.90;60.70;;;;;;4939625;28;20074;-18
2022/07/26 04:57:05;;;;;;;1.88;0.32;;;22.70;61.00;;;;;;4953813;28;20108;-18
2022/07/26 04:59:31;;;;;;;0.73;0.52;;;22.60;61.40;;;;;;4939440;28;20166;-18
2022/07/26 05:01:56;;;;;;;0.60;0.32;;;22.50;61.50;;;;;;4933642;28;20039;-18
2022/07/26 05:04:22;;;;;;;1.13;0.35;;;22.40;61.60;;;;;;4936492;28;20135;-18
2022/07/26 05:06:47;;;;;;;0.90;0.38;;;22.40;61.80;;;;;;4934618;28;20046;-18
2022/07/26 05:09:13;;;;;;;1.60;0.40;;;22.20;62.00;;;;;;4938364;28;20476;-19
2022/07/26 05:11:38;;;;;;;0.40;0.30;;;22.20;62.30;;;;;;4935015;28;20067;-19
2022/07/26 05:14:04;;;;;;;1.50;0.52;;;22.20;62.60;;;;;;4933554;28;20055;-19
2022/07/26 05:16:30;;;;;;;0.73;0.45;;;22.10;62.50;;;;;;4936335;28;20134;-18
2022/07/26 05:18:55;;;;;;;1.15;0.32;;;22.10;62.70;;;;;;4935215;28;20088;-22
2022/07/26 05:21:21;;;;;;;0.73;0.40;;;22.10;63.80;;;;;;4934897;28;20070;-19
2022/07/26 05:23:46;;;;;;;1.23;0.40;;;22.00;63.30;;;;;;4932416;28;20055;-18
2022/07/26 05:26:12;;;;;;;1.38;0.30;;;21.90;63.70;;;;;;4933268;28;20054;-20
2022/07/26 05:28:38;;;;;;;1.38;0.32;;;21.90;63.50;;;;;;4935278;28;20062;-18
2022/07/26 05:31:04;;;;;;;0.88;0.40;;;21.80;63.70;;;;;;4936182;28;20047;-18
2022/07/26 05:33:29;;;;;;;1.13;0.52;;;21.90;63.90;;;;;;4931630;28;20082;-19
2022/07/26 05:35:55;;;;;;;0.68;0.45;;;21.80;64.20;;;;;;4940549;28;20421;-18
2022/07/26 05:38:21;;;;;;;0.40;0.30;;;21.80;64.30;;;;;;4939506;28;20051;-19
2022/07/26 05:40:47;;;;;;;1.02;0.50;;;21.70;64.80;;;;;;4935630;28;20047;-18
2022/07/26 05:43:12;;;;;;;0.45;0.32;;;21.70;64.60;;;;;;4941837;28;20137;-18
2022/07/26 05:45:38;;;;;;;0.82;0.38;;;21.70;64.80;;;;;;4938481;28;20035;-19
2022/07/26 05:48:03;;;;;;;1.85;0.30;;;21.60;65.10;;;;;;4937127;28;20051;-19
2022/07/26 05:50:29;;;;;;;1.30;0.50;;;21.70;64.90;;;;;;4932825;28;20039;-19
2022/07/26 05:52:54;;;;;;;1.75;0.40;;;21.70;65.00;;;;;;4939707;28;20047;-23
2022/07/26 05:55:21;;;;;;;0.40;0.40;;;21.70;65.10;;;;;;4941084;28;20039;-19
2022/07/26 05:57:46;;;;;;;0.68;0.30;;;21.70;65.20;;;;;;4936335;28;20069;-18
2022/07/26 06:00:12;;;;;;;1.10;0.50;;;21.60;65.40;;;;;;4938451;28;20043;-18
2022/07/26 06:02:39;;;;;;;1.33;0.82;;;21.50;65.50;;;;;;4935642;28;20043;-18
2022/07/26 06:05:04;;;;;;;1.00;0.35;;;21.60;65.50;;;;;;4937680;28;20043;-18
2022/07/26 06:07:30;;;;;;;0.73;0.45;;;21.50;65.60;;;;;;4936529;28;20055;-19
2022/07/26 06:09:55;;;;;;;0.77;0.43;;;21.50;65.90;;;;;;4936589;28;20035;-18
2022/07/26 06:12:21;;;;;;;1.20;0.43;;;21.50;65.70;;;;;;4937881;28;20418;-21
2022/07/26 06:14:46;;;;;;;0.75;0.40;;;21.50;66.00;;;;;;4934656;28;20521;-18
2022/07/26 06:17:12;;;;;;;1.88;0.47;;;21.40;66.00;;;;;;4935848;28;20062;-19
2022/07/26 06:19:38;;;;;;;1.10;0.38;;;21.50;65.80;;;;;;4936643;28;20031;-28
2022/07/26 06:22:03;;;;;;;0.68;0.28;;;21.40;66.10;;;;;;4939003;28;20039;-19
2022/07/26 06:24:29;;;;;;;2.13;0.63;;;21.40;66.90;;;;;;4938473;28;20066;-19
2022/07/26 06:26:55;;;;;;;1.23;0.30;;;21.40;66.10;;;;;;4938054;28;20051;-18
2022/07/26 06:29:21;;;;;;;1.85;0.45;;;21.50;66.00;;;;;;4938327;29;20051;-19
2022/07/26 06:31:47;;;;;;;1.05;0.47;;;21.50;65.90;;;;;;4935588;28;20066;-19
2022/07/26 06:34:12;;;;;;;0.63;0.32;;;21.40;65.90;;;;;;4936109;28;20204;-20
2022/07/26 06:36:38;;;;;;;1.15;0.65;;;21.40;66.10;;;;;;4936732;28;20569;-19
2022/07/26 06:39:03;;;;;;;0.40;0.20;;;21.50;65.90;;;;;;4937457;28;20426;-21
2022/07/26 06:41:29;;;;;;;1.52;0.40;;;21.50;66.00;;;;;;4940630;28;20130;-19
2022/07/26 06:43:55;;;;;;;0.98;0.35;;;21.40;66.10;;;;;;4935741;28;20051;-18
2022/07/26 06:46:20;;;;;;;0.65;0.30;;;21.40;66.10;;;;;;4939051;28;20085;-20
2022/07/26 06:48:46;;;;;;;0.63;0.22;;;21.50;65.90;;;;;;4937599;28;20418;-17
2022/07/26 06:51:12;;;;;;;1.08;0.40;;;21.60;66.30;;;;;;4938242;28;20042;-21
2022/07/26 06:53:38;;;;;;;0.88;0.22;;;21.70;65.70;;;;;;4939632;28;20177;-20
2022/07/26 06:56:03;;;;;;;1.08;0.20;;;21.70;65.50;;;;;;4940303;28;20066;-18
2022/07/26 06:58:29;;;;;;;0.85;0.30;;;21.80;65.50;;;;;;4943541;28;20788;-24
2022/07/26 07:00:55;;;;;;;0.80;0.30;;;21.90;65.00;;;;;;4941211;28;20146;-19
2022/07/26 07:03:20;;;;;;;1.67;0.30;;;21.90;64.90;;;;;;4940659;28;20510;-19
2022/07/26 07:05:46;;;;;;;1.42;0.30;;;21.90;64.90;;;;;;4939096;28;20078;-19
2022/07/26 07:08:12;;;;;;;0.40;0.20;;;21.90;64.70;;;;;;4940139;28;20135;-18
2022/07/26 07:10:38;;;;;;;0.40;0.20;;;21.90;64.70;;;;;;4937560;28;20048;-18
2022/07/26 07:13:04;;;;;;;1.75;0.30;;;21.90;65.00;;;;;;4937884;28;20048;-18
2022/07/26 07:15:29;;;;;;;1.25;0.30;;;22.00;64.60;;;;;;4942797;28;20060;-18
2022/07/26 07:17:55;;;;;;;0.47;0.30;;;22.00;64.60;;;;;;4939626;28;20414;-18
2022/07/26 07:20:20;;;;;;;0.82;0.47;;;22.00;64.40;;;;;;4936338;28;20044;-18
2022/07/26 07:22:46;;;;;;;0.47;0.30;;;22.00;64.50;;;;;;4939560;28;20043;-19
2022/07/26 07:25:12;;;;;;;1.10;0.32;;;22.00;64.60;;;;;;4940783;28;20075;-18
2022/07/26 07:27:37;;;;;;;0.65;0.30;;;22.10;64.90;;;;;;4939968;28;20054;-18
2022/07/26 07:30:03;;;;;;;1.08;0.65;;;22.10;64.90;;;;;;4942453;28;20059;-19
2022/07/26 07:32:29;;;;;;;0.93;0.50;;;22.10;64.60;;;;;;4939526;28;20498;-18
2022/07/26 07:34:55;;;;;;;0.88;0.30;;;22.10;65.00;;;;;;4944780;28;20104;-21
2022/07/26 07:37:20;;;;;;;1.02;0.30;;;22.20;65.10;;;;;;4942615;28;20039;-19
2022/07/26 07:39:46;;;;;;;0.73;0.30;;;22.20;64.60;;;;;;4938258;28;20043;-18
2022/07/26 07:42:12;;;;;;;1.85;0.25;;;22.20;64.70;;;;;;4939492;28;20031;-18
2022/07/26 07:44:37;;;;;;;0.43;0.40;;;22.20;64.10;;;;;;4938618;28;20150;-19
2022/07/26 07:47:03;;;;;;;0.82;0.38;;;22.30;64.40;;;;;;4939250;28;20040;-21
2022/07/26 07:49:29;;;;;;;0.28;0.20;;;22.30;64.40;;;;;;4940005;28;20051;-18
2022/07/26 07:51:54;;;;;;;1.10;0.30;;;22.30;64.30;;;;;;4935684;28;20105;-18
2022/07/26 07:54:20;;;;;;;0.30;0.30;;;22.30;64.70;;;;;;4937279;28;20527;-18
2022/07/26 07:56:45;;;;;;;0.55;0.45;;;22.30;64.70;;;;;;4939761;28;20051;-18
2022/07/26 07:59:11;;;;;;;0.65;0.30;;;22.40;65.00;;;;;;4938874;28;20043;-18
2022/07/26 08:01:37;;;;;;;0.73;0.40;;;22.30;65.00;;;;;;4937993;28;20051;-19
2022/07/26 08:04:02;;;;;;;0.70;0.20;;;22.40;65.30;;;;;;4939020;28;20071;-18
2022/07/26 08:06:28;;;;;;;0.80;0.30;;;22.30;64.20;;;;;;4942882;28;20045;-19
2022/07/26 08:08:53;;;;;;;0.38;0.30;;;22.30;64.30;;;;;;4939903;28;20560;-49
2022/07/26 08:11:19;;;;;;;0.28;0.22;;;22.30;64.50;;;;;;4939199;29;20058;-48
2022/07/26 08:13:45;;;;;;;0.43;0.43;;;22.40;65.10;;;;;;4937807;28;20138;-49
2022/07/26 08:16:10;;;;;;;0.40;0.20;;;22.40;64.30;;;;;;4939808;28;20115;-48
2022/07/26 08:18:36;;;;;;;0.38;0.20;;;22.40;64.20;;;;;;4944278;28;20105;-48
2022/07/26 08:21:02;;;;;;;0.43;0.30;;;22.40;64.10;;;;;;4940729;28;20522;-48
2022/07/26 08:23:28;;;;;;;0.60;0.30;;;22.40;64.30;;;;;;4938619;28;20058;-49
2022/07/26 08:25:53;;;;;;;1.20;0.20;;;22.40;64.10;;;;;;4937461;28;20044;-48
2022/07/26 08:28:19;;;;;;;0.70;0.40;;;22.40;64.00;;;;;;4940833;28;20437;-48
2022/07/26 08:30:44;;;;;;;0.20;0.20;;;22.40;64.20;;;;;;4938216;28;20040;-46
2022/07/26 08:33:10;;;;;;;0.50;0.32;;;22.40;63.80;;;;;;4938082;28;20540;-48
2022/07/26 08:35:35;;;;;;;0.15;0.10;;;22.40;63.80;;;;;;4938926;28;20040;-49
2022/07/26 08:38:01;;;;;;;0.25;0.20;;;22.40;63.90;;;;;;4937026;28;20105;-48
2022/07/26 08:40:27;;;;;;;0.20;0.20;;;22.40;63.50;;;;;;4941440;28;20047;-47
2022/07/26 08:42:54;;;;;;;0.30;0.30;;;22.50;63.70;;;;;;4943205;28;20082;-48
2022/07/26 08:45:23;;;;;;;0.47;0.22;;;22.50;63.80;;;;;;4950823;28;20043;-49
2022/07/26 08:47:48;;;;;;;0.57;0.20;;;22.50;63.70;;;;;;4941615;28;20048;-47
2022/07/26 08:50:14;;;;;;;0.63;0.30;;;22.50;63.60;;;;;;4941538;28;20566;-48
2022/07/26 08:52:40;;;;;;;0.20;0.20;;;22.50;63.60;;;;;;4937317;28;20067;-33
2022/07/26 08:55:06;;;;;;;0.25;0.20;;;22.50;63.80;;;;;;4941946;28;20134;-48
2022/07/26 08:57:31;;;;;;;0.15;0.10;;;22.60;63.50;;;;;;4941229;28;20043;-48
2022/07/26 09:00:24;;;;;;;0.65;0.35;;;22.50;63.10;;;;;;4941769;28;20493;-48
2022/07/26 09:02:49;;;;;;;0.28;0.25;;;22.60;63.20;;;;;;4946564;28;20555;-47
2022/07/26 09:05:17;;;;;;;0.30;0.20;;;22.60;63.10;;;;;;4935004;28;20047;-48
2022/07/26 09:07:44;;;;;;;0.10;0.10;;;22.60;62.90;;;;;;4939741;28;20074;-47
2022/07/26 09:10:11;;;;;;;0.60;0.30;;;22.60;62.90;;;;;;4939258;28;20048;-48
2022/07/26 09:12:36;;;;;;;0.55;0.20;;;22.60;62.70;;;;;;4939469;28;20071;-51
2022/07/26 09:15:03;;;;;;;0.20;0.10;;;22.60;62.70;;;;;;4938192;28;20070;-48
2022/07/26 09:17:42;;;;;;;0.30;0.20;;;22.70;62.90;;;;;;4939161;28;20081;-48
2022/07/26 09:20:08;;;;;;;1.42;0.40;;;22.60;62.50;;;;;;4939439;28;20134;-48
2022/07/26 09:22:35;;;;;;;0.13;0.13;;;22.60;62.60;;;;;;4939730;28;20040;-48
2022/07/26 09:25:01;;;;;;;0.32;0.20;;;22.70;62.60;;;;;;4935314;28;20048;-48
2022/07/26 09:27:33;;;;;;;0.65;0.25;;;22.70;62.40;;;;;;4934486;29;20059;-48
2022/07/26 09:30:07;;;;;;;0.45;0.20;;;22.70;62.30;;;;;;4941778;28;20513;-49
2022/07/26 09:32:33;;;;;;;0.20;0.20;;;22.70;62.30;;;;;;4939924;29;20123;-48
2022/07/26 09:35:15;;;;;;;0.60;0.30;;;22.70;62.20;;;;;;4938496;28;20487;-47
2022/07/26 09:37:45;;;;;;;0.10;0.10;;;22.70;62.40;;;;;;4938792;28;20556;-48
2022/07/26 09:40:12;;;;;;;0.32;0.15;;;22.60;62.30;;;;;;4943194;28;20044;-47
2022/07/26 09:42:52;;;;;;;0.20;0.10;;;22.70;62.00;;;;;;4936514;28;20397;-47
2022/07/26 09:45:17;;;;;;;0.35;0.10;;;22.70;62.60;;;;;;4933120;28;20085;-47
2022/07/26 09:47:43;;;;;;;0.10;0.10;;;22.70;61.90;;;;;;4935889;28;20051;-37
2022/07/26 09:50:22;;;;;;;0.40;0.20;;;22.70;62.30;;;;;;4942334;28;20150;-46
2022/07/26 09:52:57;;;;;;;0.40;0.10;;;22.70;62.50;;;;;;4935622;28;20113;-48
2022/07/26 09:55:23;;;;;;;1.00;0.17;;;22.60;62.40;;;;;;4943321;28;20178;-48
2022/07/26 09:57:49;;;;;;;0.10;0.10;;;22.60;62.60;;;;;;4936184;28;20051;-44
2022/07/26 10:00:15;;;;;;;0.30;0.20;;;22.70;62.50;;;;;;4938349;28;20035;-46
2022/07/26 10:02:41;;;;;;;0.30;0.20;;;22.70;62.40;;;;;;4937779;28;20031;-46
2022/07/26 10:05:07;;;;;;;0.10;0.10;;;22.70;62.50;;;;;;4937201;28;20085;-46
2022/07/26 10:07:32;;;;;;;0.30;0.13;;;22.70;62.50;;;;;;4939698;28;20051;-46
2022/07/26 10:10:03;;;;;;;0.28;0.20;;;22.70;62.40;;;;;;4937664;28;20487;-47
2022/07/26 10:12:29;;;;;;;0.10;0.10;;;22.70;62.30;;;;;;4937740;28;20060;-46
2022/07/26 10:14:55;;;;;;;0.17;0.17;;;22.70;62.40;;;;;;4935742;28;20046;-46
2022/07/26 10:17:27;;;;;;;0.30;0.10;;;22.70;62.20;;;;;;4938319;29;20051;-46
2022/07/26 10:20:36;;;;;;;0.00;0.00;;;22.70;62.10;;;;;;4939358;28;21854;-45
2022/07/26 10:23:02;;;;;;;0.20;0.10;;;22.70;62.30;;;;;;4934586;28;20405;-46
2022/07/26 10:25:48;;;;;;;0.22;0.10;;;22.70;62.20;;;;;;4938256;28;20082;-46
2022/07/26 10:28:22;;;;;;;0.17;0.10;;;22.70;62.10;;;;;;4593433;28;10000141;-46
2022/07/26 10:30:48;;;;;;;0.20;0.10;;;22.70;62.20;;;;;;4587757;28;9999692;-46
2022/07/26 10:33:15;;;;;;;0.40;0.20;;;22.70;62.40;;;;;;4937877;28;20168;-46
2022/07/26 10:35:42;;;;;;;0.17;0.10;;;22.80;61.80;;;;;;4936193;28;20097;-45
2022/07/26 10:38:34;;;;;;;0.10;0.10;;;22.80;62.10;;;;;;4935035;28;20052;-46
2022/07/26 10:41:05;;;;;;;0.10;0.10;;;22.80;61.90;;;;;;4933548;28;20078;-46
2022/07/26 10:43:31;;;;;;;0.10;0.10;;;22.80;61.60;;;;;;4931539;28;20046;-46
2022/07/26 10:46:15;;;;;;;0.10;0.10;;;22.80;61.70;;;;;;4937908;28;20043;-46
2022/07/26 10:49:11;;;;;;;0.30;0.10;;;22.80;61.60;;;;;;4934501;28;20055;-46
2022/07/26 10:51:38;;;;;;;0.10;0.10;;;22.80;61.50;;;;;;4924767;28;20462;-46
2022/07/26 10:54:08;;;;;;;0.10;0.10;;;22.80;61.50;;;;;;4933741;28;20055;-47
2022/07/26 10:56:34;;;;;;;0.13;0.10;;;22.80;61.50;;;;;;4939601;28;20055;-45
2022/07/26 10:58:59;;;;;;;0.20;0.10;;;22.80;61.80;;;;;;4936963;28;20528;-44
2022/07/26 11:01:38;;;;;;;0.20;0.13;;;22.80;61.70;;;;;;4939524;28;20035;-45
2022/07/26 11:04:05;;;;;;;0.10;0.10;;;22.90;61.60;;;;;;4932257;28;20537;-44
2022/07/26 11:06:30;;;;;;;0.17;0.15;;;22.80;61.60;;;;;;4933463;28;20051;-45
2022/07/26 11:08:56;;;;;;;0.08;0.08;;;22.80;61.70;;;;;;4919783;28;20055;-43
2022/07/26 11:11:28;;;;;;;0.20;0.10;;;22.80;62.50;;;;;;4936328;28;20696;-44
2022/07/26 11:14:06;;;;;;;0.25;0.10;;;22.80;61.70;;;;;;4933918;28;20138;-45
2022/07/26 11:16:42;;;;;;;0.40;0.10;;;22.80;61.50;;;;;;4932574;28;20039;-44
2022/07/26 11:19:15;;;;;;;0.30;0.10;;;22.80;62.20;;;;;;4936178;28;20074;-45
2022/07/26 11:21:42;;;;;;;0.03;0.00;;;22.90;61.50;;;;;;4936675;28;21272;-45
2022/07/26 11:24:08;;;;;;;0.20;0.10;;;22.80;61.50;;;;;;4937046;28;20063;-45
2022/07/26 11:26:41;;;;;;;0.10;0.10;;;22.90;61.50;;;;;;4938105;28;20043;-45
2022/07/26 11:29:06;;;;;;;0.40;0.00;;;22.90;61.60;;;;;;4933078;28;20515;-45
2022/07/26 11:31:35;;;;;;;0.00;0.00;;;22.90;61.50;;;;;;4936042;28;20130;-45
2022/07/26 11:34:00;;;;;;;0.10;0.00;;;22.90;61.40;;;;;;4940110;28;20056;-46
2022/07/26 11:36:35;;;;;;;0.20;0.10;;;22.90;61.40;;;;;;4936705;29;20125;-43
2022/07/26 11:39:02;;;;;;;0.10;0.10;;;22.90;61.50;;;;;;4937499;28;20130;-44
2022/07/26 11:41:28;;;;;;;0.00;0.00;;;22.90;61.20;;;;;;4939377;28;20415;-45
2022/07/26 11:43:54;;;;;;;0.20;0.10;;;23.00;61.20;;;;;;4941689;28;20561;-43
2022/07/26 11:46:20;;;;;;;0.22;0.10;;;23.00;61.10;;;;;;4946376;28;20096;-44
2022/07/26 11:48:50;;;;;;;0.30;0.00;;;23.00;61.20;;;;;;4939404;28;20043;-45
2022/07/26 11:51:17;;;;;;;0.30;0.20;;;23.00;61.20;;;;;;4942006;28;20035;-44
2022/07/26 11:53:42;;;;;;;0.00;0.00;;;23.00;61.10;;;;;;4941261;28;20451;-44
2022/07/26 11:56:12;;;;;;;0.10;0.10;;;23.00;61.10;;;;;;4938801;28;20554;-45
2022/07/26 11:58:38;;;;;;;0.10;0.10;;;23.00;61.10;;;;;;4939881;28;20050;-44
2022/07/26 12:01:04;;;;;;;0.10;0.10;;;23.00;61.10;;;;;;4945001;28;20410;-43
2022/07/26 12:03:33;;;;;;;0.20;0.10;;;23.00;61.20;;;;;;4925774;29;20039;-44
2022/07/26 12:06:07;;;;;;;0.68;0.20;;;23.00;61.20;;;;;;4943397;28;20494;-45
2022/07/26 12:08:47;;;;;;;0.05;0.05;;;23.10;61.20;;;;;;4941238;28;20071;-44
2022/07/26 12:11:12;;;;;;;0.15;0.10;;;23.10;61.30;;;;;;4937866;28;20044;-44
2022/07/26 12:13:55;;;;;;;0.10;0.10;;;23.10;61.30;;;;;;4935817;28;20054;-44
2022/07/26 12:16:50;;;;;;;0.00;0.00;;;23.00;61.20;;;;;;4949699;28;20052;-45
2022/07/26 12:19:16;;;;;;;0.30;0.17;;;23.10;61.40;;;;;;4930395;28;20472;-44
2022/07/26 12:21:49;;;;;;;0.10;0.00;;;23.00;61.40;;;;;;4942860;28;20039;-45
2022/07/26 12:24:56;;;;;;;0.75;0.17;;;23.00;61.40;;;;;;4937778;28;20051;-45
2022/07/26 12:27:25;;;;;;;0.20;0.20;;;23.10;61.30;;;;;;4896573;28;20042;-44
2022/07/26 12:29:51;;;;;;;0.35;0.10;;;23.10;61.40;;;;;;4909553;28;20218;-44
2022/07/26 12:32:30;;;;;;;0.32;0.15;;;23.10;61.30;;;;;;4938436;28;20117;-44
2022/07/26 12:34:59;;;;;;;0.15;0.10;;;23.10;61.30;;;;;;4915430;28;20067;-43
2022/07/26 12:37:25;;;;;;;0.20;0.10;;;23.10;61.30;;;;;;4913127;28;20125;-45
2022/07/26 12:40:04;;;;;;;0.15;0.10;;;23.10;61.30;;;;;;4913428;28;20519;-44
2022/07/26 12:42:33;;;;;;;0.10;0.10;;;23.10;61.30;;;;;;4904963;28;20418;-45
2022/07/26 12:44:59;;;;;;;0.38;0.20;;;23.10;61.30;;;;;;4901473;28;20041;-40
2022/07/26 12:47:25;;;;;;;0.05;0.05;;;23.10;61.20;;;;;;4909818;28;20435;-44
2022/07/26 12:49:50;;;;;;;0.10;0.10;;;23.10;60.50;;;;;;4960092;28;20043;-44
2022/07/26 12:52:20;;;;;;;0.20;0.20;;;23.20;61.20;;;;;;4890193;28;20063;-44
2022/07/26 12:54:47;;;;;;;0.50;0.30;;;23.20;61.10;;;;;;4911977;28;20045;-45